createdAt,value
2023-03-03T00:01:07.057Z,102358.00
2023-03-03T00:03:36.712Z,102358.94
2023-03-03T00:06:05.431Z,102363.38
2023-03-03T00:08:33.841Z,102367.09
2023-03-03T00:11:03.361Z,102367.19
2023-03-03T00:13:32.477Z,102371.75
2023-03-03T00:16:15.950Z,102374.38
2023-03-03T00:18:47.547Z,102373.56
2023-03-03T00:21:29.349Z,102380.63
2023-03-03T00:24:18.250Z,102375.47
2023-03-03T00:26:47.591Z,102385.22
2023-03-03T00:29:30.896Z,102372.06
2023-03-03T00:32:17.247Z,102373.91
2023-03-03T00:34:46.643Z,102378.28
2023-03-03T00:37:27.125Z,102382.72
2023-03-03T00:39:55.438Z,102379.25
2023-03-03T00:42:24.540Z,102386.31
2023-03-03T00:44:57.905Z,102386.38
2023-03-03T00:47:33.429Z,102385.38
2023-03-03T00:50:25.726Z,102392.31
2023-03-03T00:53:02.492Z,102396.56
2023-03-03T00:55:30.566Z,102387.78
2023-03-03T00:57:58.548Z,102394.81
2023-03-03T01:00:26.479Z,102393.91
2023-03-03T01:02:54.501Z,102392.19
2023-03-03T01:05:23.906Z,102391.44
2023-03-03T01:07:51.796Z,102393.38
2023-03-03T01:10:19.971Z,102398.00
2023-03-03T01:12:48.037Z,102393.69
2023-03-03T01:15:16.754Z,102388.50
2023-03-03T01:17:44.813Z,102400.06
2023-03-03T01:20:15.245Z,102403.63
2023-03-03T01:22:44.735Z,102406.16
2023-03-03T01:25:12.791Z,102395.53
2023-03-03T01:27:41.192Z,102398.88
2023-03-03T01:30:10.732Z,102396.88
2023-03-03T01:32:38.762Z,102397.59
2023-03-03T01:35:08.010Z,102401.72
2023-03-03T01:37:36.186Z,102397.13
2023-03-03T01:40:07.277Z,102393.41
2023-03-03T01:42:35.297Z,102399.38
2023-03-03T01:45:25.335Z,102394.88
2023-03-03T01:47:58.359Z,102397.50
2023-03-03T01:50:37.270Z,102394.03
2023-03-03T01:53:07.760Z,102400.19
2023-03-03T01:55:40.561Z,102391.50
2023-03-03T01:58:12.304Z,102394.28
2023-03-03T02:00:46.041Z,102395.34
2023-03-03T02:03:14.126Z,102396.38
2023-03-03T02:05:44.291Z,102396.56
2023-03-03T02:08:17.958Z,102394.97
2023-03-03T02:10:48.117Z,102394.41
2023-03-03T02:13:16.434Z,102389.38
2023-03-03T02:15:44.558Z,102394.78
2023-03-03T02:18:15.497Z,102391.38
2023-03-03T02:20:54.786Z,102388.00
2023-03-03T02:23:28.368Z,102391.56
2023-03-03T02:26:08.438Z,102388.97
2023-03-03T02:28:38.413Z,102381.09
2023-03-03T02:31:11.026Z,102383.84
2023-03-03T02:33:39.111Z,102384.72
2023-03-03T02:36:07.781Z,102395.34
2023-03-03T02:38:42.274Z,102384.88
2023-03-03T02:41:17.388Z,102378.00
2023-03-03T02:43:53.725Z,102387.78
2023-03-03T02:46:21.978Z,102382.47
2023-03-03T02:48:49.996Z,102391.41
2023-03-03T02:51:17.936Z,102388.03
2023-03-03T02:53:46.841Z,102386.34
2023-03-03T02:56:16.516Z,102399.69
2023-03-03T02:58:44.411Z,102393.59
2023-03-03T03:01:12.786Z,102393.66
2023-03-03T03:03:40.792Z,102397.19
2023-03-03T03:06:09.343Z,102400.75
2023-03-03T03:08:37.468Z,102412.19
2023-03-03T03:11:07.058Z,102407.78
2023-03-03T03:13:36.555Z,102409.53
2023-03-03T03:16:04.754Z,102413.84
2023-03-03T03:18:32.695Z,102417.38
2023-03-03T03:21:08.010Z,102418.28
2023-03-03T03:23:37.131Z,102417.41
2023-03-03T03:26:06.112Z,102415.78
2023-03-03T03:28:34.257Z,102420.28
2023-03-03T03:31:03.834Z,102409.81
2023-03-03T03:33:31.948Z,102417.78
2023-03-03T03:36:00.119Z,102421.28
2023-03-03T03:38:29.777Z,102409.03
2023-03-03T03:40:58.082Z,102412.59
2023-03-03T03:43:26.941Z,102413.47
2023-03-03T03:45:54.953Z,102409.84
2023-03-03T03:48:24.480Z,102410.66
2023-03-03T03:50:52.688Z,102407.06
2023-03-03T03:53:20.962Z,102400.06
2023-03-03T03:55:48.973Z,102399.19
2023-03-03T03:58:18.428Z,102399.25
2023-03-03T04:00:47.370Z,102401.91
2023-03-03T04:03:15.868Z,102401.94
2023-03-03T04:05:45.686Z,102395.84
2023-03-03T04:08:14.030Z,102396.75
2023-03-03T04:10:41.894Z,102399.41
2023-03-03T04:13:09.745Z,102396.75
2023-03-03T04:15:37.751Z,102402.09
2023-03-03T04:18:06.128Z,102396.00
2023-03-03T04:20:34.183Z,102388.94
2023-03-03T04:23:03.658Z,102384.63
2023-03-03T04:25:31.665Z,102386.38
2023-03-03T04:27:59.734Z,102395.13
2023-03-03T04:30:28.108Z,102390.69
2023-03-03T04:32:56.007Z,102388.88
2023-03-03T04:35:24.105Z,102387.06
2023-03-03T04:37:52.030Z,102393.25
2023-03-03T04:40:21.382Z,102393.28
2023-03-03T04:42:49.518Z,102390.69
2023-03-03T04:45:17.685Z,102398.63
2023-03-03T04:47:45.648Z,102395.19
2023-03-03T04:50:13.770Z,102392.56
2023-03-03T04:52:41.701Z,102404.03
2023-03-03T04:55:10.955Z,102398.75
2023-03-03T04:57:40.250Z,102404.81
2023-03-03T05:00:13.066Z,102411.88
2023-03-03T05:02:41.537Z,102409.25
2023-03-03T05:05:11.341Z,102411.94
2023-03-03T05:07:39.326Z,102410.16
2023-03-03T05:10:08.843Z,102418.91
2023-03-03T05:12:36.700Z,102412.66
2023-03-03T05:15:07.617Z,102411.75
2023-03-03T05:17:35.570Z,102412.59
2023-03-03T05:20:03.506Z,102413.47
2023-03-03T05:22:31.440Z,102410.00
2023-03-03T05:24:59.326Z,102411.75
2023-03-03T05:27:27.277Z,102416.16
2023-03-03T05:29:55.228Z,102411.75
2023-03-03T05:32:24.570Z,102417.09
2023-03-03T05:34:52.674Z,102420.63
2023-03-03T05:37:20.806Z,102412.75
2023-03-03T05:39:48.707Z,102423.38
2023-03-03T05:42:16.598Z,102421.69
2023-03-03T05:44:44.465Z,102426.19
2023-03-03T05:47:12.653Z,102429.84
2023-03-03T05:49:42.147Z,102428.13
2023-03-03T05:52:10.216Z,102426.47
2023-03-03T05:54:38.169Z,102418.66
2023-03-03T05:57:06.121Z,102416.97
2023-03-03T05:59:34.077Z,102426.63
2023-03-03T06:02:02.272Z,102414.34
2023-03-03T06:04:30.217Z,102415.19
2023-03-03T06:06:59.650Z,102412.47
2023-03-03T06:09:28.068Z,102403.59
2023-03-03T06:11:55.890Z,102406.13
2023-03-03T06:14:26.908Z,102416.75
2023-03-03T06:16:55.077Z,102407.09
2023-03-03T06:19:23.051Z,102412.41
2023-03-03T06:21:51.080Z,102412.47
2023-03-03T06:24:20.362Z,102412.59
2023-03-03T06:26:48.411Z,102420.56
2023-03-03T06:29:16.784Z,102416.22
2023-03-03T06:31:45.166Z,102415.38
2023-03-03T06:34:13.112Z,102418.06
2023-03-03T06:36:41.907Z,102419.88
2023-03-03T06:39:09.806Z,102419.03
2023-03-03T06:41:39.750Z,102414.63
2023-03-03T06:44:07.701Z,102426.94
2023-03-03T06:46:35.715Z,102426.13
2023-03-03T06:49:03.670Z,102422.66
2023-03-03T06:51:35.009Z,102428.91
2023-03-03T06:54:10.847Z,102434.22
2023-03-03T06:56:40.693Z,102439.50
2023-03-03T06:59:13.925Z,102440.34
2023-03-03T07:01:42.260Z,102438.59
2023-03-03T07:04:22.897Z,102444.78
2023-03-03T07:06:51.032Z,102441.22
2023-03-03T07:09:24.092Z,102444.66
2023-03-03T07:11:54.188Z,102451.59
2023-03-03T07:14:22.316Z,102455.09
2023-03-03T07:16:54.982Z,102464.72
2023-03-03T07:19:33.067Z,102455.88
2023-03-03T07:22:05.794Z,102460.25
2023-03-03T07:24:34.579Z,102463.66
2023-03-03T07:27:13.756Z,102476.78
2023-03-03T07:29:42.337Z,102469.63
2023-03-03T07:32:26.143Z,102465.22
2023-03-03T07:34:56.190Z,102471.31
2023-03-03T07:37:31.790Z,102465.03
2023-03-03T07:40:01.924Z,102467.59
2023-03-03T07:42:39.952Z,102472.72
2023-03-03T07:45:25.135Z,102478.69
2023-03-03T07:47:53.345Z,102483.00
2023-03-03T07:50:25.493Z,102480.28
2023-03-03T07:52:57.535Z,102482.00
2023-03-03T07:55:34.102Z,102477.63
2023-03-03T07:58:22.199Z,102480.25
2023-03-03T08:01:29.324Z,102488.97
2023-03-03T08:03:57.671Z,102484.47
2023-03-03T08:06:41.438Z,102482.75
2023-03-03T08:09:32.704Z,102488.84
2023-03-03T08:12:10.326Z,102481.69
2023-03-03T08:14:40.186Z,102487.66
2023-03-03T08:17:16.081Z,102487.50
2023-03-03T08:19:43.962Z,102495.09
2023-03-03T08:22:17.408Z,102494.03
2023-03-03T08:24:45.371Z,102503.44
2023-03-03T08:27:13.258Z,102502.34
2023-03-03T08:29:42.801Z,102496.91
2023-03-03T08:32:10.800Z,102497.53
2023-03-03T08:34:38.782Z,102505.28
2023-03-03T08:37:06.852Z,102508.66
2023-03-03T08:39:34.829Z,102516.44
2023-03-03T08:42:02.877Z,102520.75
2023-03-03T08:44:30.767Z,102519.72
2023-03-03T08:47:00.454Z,102520.44
2023-03-03T08:49:28.432Z,102522.91
2023-03-03T08:51:57.192Z,102523.56
2023-03-03T08:54:25.034Z,102528.53
2023-03-03T08:56:52.943Z,102524.66
2023-03-03T08:59:22.581Z,102519.84
2023-03-03T09:01:50.619Z,102525.50
2023-03-03T09:04:20.060Z,102527.63
2023-03-03T09:06:48.466Z,102532.31
2023-03-03T09:09:16.492Z,102533.41
2023-03-03T09:11:44.741Z,102529.38
2023-03-03T09:14:15.768Z,102537.63
2023-03-03T09:16:50.997Z,102534.47
2023-03-03T09:19:25.483Z,102530.28
2023-03-03T09:21:54.958Z,102543.06
2023-03-03T09:24:28.000Z,102539.97
2023-03-03T09:26:56.037Z,102542.91
2023-03-03T09:29:29.349Z,102536.09
2023-03-03T09:32:01.062Z,102541.69
2023-03-03T09:34:41.090Z,102545.56
2023-03-03T09:37:23.864Z,102554.00
2023-03-03T09:39:53.386Z,102554.69
2023-03-03T09:42:57.022Z,102552.69
2023-03-03T09:45:59.819Z,102565.56
2023-03-03T09:48:40.196Z,102550.88
2023-03-03T09:51:20.928Z,102561.84
2023-03-03T09:54:02.018Z,102553.31
2023-03-03T09:56:35.406Z,102564.91
2023-03-03T09:59:17.816Z,102560.56
2023-03-03T10:01:56.361Z,102554.19
2023-03-03T10:05:00.562Z,102563.78
2023-03-03T10:07:39.466Z,102564.34
2023-03-03T10:10:30.849Z,102567.59
2023-03-03T10:13:13.243Z,102572.09
2023-03-03T10:15:54.787Z,102567.00
2023-03-03T10:18:33.807Z,102573.50
2023-03-03T10:21:09.847Z,102572.91
2023-03-03T10:23:56.889Z,102576.72
2023-03-03T10:26:52.545Z,102575.19
2023-03-03T10:29:37.142Z,102567.25
2023-03-03T10:32:32.150Z,102573.69
2023-03-03T10:35:16.894Z,102570.69
2023-03-03T10:37:55.269Z,102574.22
2023-03-03T10:40:33.064Z,102569.03
2023-03-03T10:43:43.799Z,102570.03
2023-03-03T10:46:32.320Z,102576.50
2023-03-03T10:49:21.150Z,102574.03
2023-03-03T10:52:02.064Z,102581.50
2023-03-03T10:54:46.125Z,102588.22
2023-03-03T10:57:24.269Z,102581.72
2023-03-03T11:00:05.517Z,102584.13
2023-03-03T11:02:44.822Z,102579.88
2023-03-03T11:05:38.299Z,102580.06
2023-03-03T11:08:13.940Z,102582.13
2023-03-03T11:10:52.378Z,102587.91
2023-03-03T11:13:29.281Z,102582.38
2023-03-03T11:16:19.504Z,102582.88
2023-03-03T11:19:02.941Z,102587.19
2023-03-03T11:21:36.234Z,102587.09
2023-03-03T11:24:17.464Z,102591.50
2023-03-03T11:27:07.832Z,102591.69
2023-03-03T11:29:51.528Z,102597.81
2023-03-03T11:32:28.600Z,102599.22
2023-03-03T11:35:05.562Z,102603.63
2023-03-03T11:37:42.001Z,102607.75
2023-03-03T11:40:18.455Z,102604.22
2023-03-03T11:42:57.598Z,102612.41
2023-03-03T11:45:32.534Z,102608.72
2023-03-03T11:48:06.379Z,102610.16
2023-03-03T11:50:40.445Z,102610.91
2023-03-03T11:53:28.168Z,102612.84
2023-03-03T11:56:00.003Z,102616.66
2023-03-03T11:58:33.244Z,102606.88
2023-03-03T12:01:09.843Z,102605.22
2023-03-03T12:03:42.759Z,102596.34
2023-03-03T12:06:22.686Z,102603.63
2023-03-03T12:09:11.854Z,102605.78
2023-03-03T12:11:49.433Z,102597.31
2023-03-03T12:14:33.232Z,102602.19
2023-03-03T12:17:07.298Z,102592.75
2023-03-03T12:19:40.298Z,102598.09
2023-03-03T12:22:24.443Z,102601.56
2023-03-03T12:25:06.044Z,102602.34
2023-03-03T12:27:44.925Z,102597.94
2023-03-03T12:30:22.168Z,102606.41
2023-03-03T12:33:05.948Z,102595.69
2023-03-03T12:35:40.532Z,102592.00
2023-03-03T12:38:17.652Z,102596.03
2023-03-03T12:40:53.718Z,102594.66
2023-03-03T12:43:37.545Z,102590.63
2023-03-03T12:46:13.224Z,102589.41
2023-03-03T12:48:45.020Z,102587.25
2023-03-03T12:51:26.068Z,102582.22
2023-03-03T12:54:19.969Z,102575.19
2023-03-03T12:56:55.073Z,102579.38
2023-03-03T12:59:30.422Z,102579.31
2023-03-03T13:02:16.899Z,102575.31
2023-03-03T13:04:54.801Z,102578.69
2023-03-03T13:07:28.625Z,102579.66
2023-03-03T13:10:15.566Z,102576.13
2023-03-03T13:12:51.773Z,102570.88
2023-03-03T13:15:31.966Z,102567.78
2023-03-03T13:18:20.816Z,102565.59
2023-03-03T13:20:55.049Z,102564.47
2023-03-03T13:23:38.257Z,102573.75
2023-03-03T13:26:12.879Z,102566.50
2023-03-03T13:28:50.476Z,102563.81
2023-03-03T13:31:22.379Z,102566.50
2023-03-03T13:33:55.524Z,102566.41
2023-03-03T13:36:27.829Z,102557.88
2023-03-03T13:39:01.538Z,102561.63
2023-03-03T13:41:34.984Z,102567.84
2023-03-03T13:44:07.176Z,102571.22
2023-03-03T13:46:43.601Z,102555.19
2023-03-03T13:49:37.467Z,102555.78
2023-03-03T13:52:09.912Z,102551.50
2023-03-03T13:54:59.174Z,102550.03
2023-03-03T13:57:52.393Z,102544.84
2023-03-03T14:00:32.028Z,102555.25
2023-03-03T14:03:33.262Z,102563.66
2023-03-03T14:06:04.532Z,102566.03
2023-03-03T14:08:59.170Z,102568.88
2023-03-03T14:11:31.336Z,102571.06
2023-03-03T14:14:09.475Z,102570.19
2023-03-03T14:16:48.477Z,102569.22
2023-03-03T14:19:20.353Z,102572.88
2023-03-03T14:22:00.505Z,102564.03
2023-03-03T14:24:30.152Z,102564.13
2023-03-03T14:26:59.808Z,102567.69
2023-03-03T14:29:35.312Z,102568.63
2023-03-03T14:32:21.385Z,102565.78
2023-03-03T14:34:59.709Z,102564.84
2023-03-03T14:37:29.988Z,102569.13
2023-03-03T14:40:17.388Z,102557.28
2023-03-03T14:42:50.015Z,102560.94
2023-03-03T14:45:35.961Z,102557.97
2023-03-03T14:48:17.239Z,102559.59
2023-03-03T14:50:50.924Z,102552.63
2023-03-03T14:53:32.091Z,102549.34
2023-03-03T14:56:18.381Z,102545.56
2023-03-03T14:58:46.446Z,102536.69
2023-03-03T15:01:23.933Z,102534.78
2023-03-03T15:04:00.447Z,102542.06
2023-03-03T15:06:37.786Z,102535.78
2023-03-03T15:09:41.982Z,102540.16
2023-03-03T15:12:24.475Z,102546.00
2023-03-03T15:14:54.225Z,102531.25
2023-03-03T15:17:34.815Z,102532.19
2023-03-03T15:20:14.894Z,102528.66
2023-03-03T15:22:49.724Z,102527.59
2023-03-03T15:25:41.926Z,102524.78
2023-03-03T15:28:28.121Z,102521.06
2023-03-03T15:31:04.558Z,102516.56
2023-03-03T15:33:39.118Z,102520.19
2023-03-03T15:36:16.866Z,102523.06
2023-03-03T15:38:57.296Z,102515.94
2023-03-03T15:41:35.947Z,102525.63
2023-03-03T15:44:16.039Z,102522.81
2023-03-03T15:47:12.408Z,102524.44
2023-03-03T15:49:59.659Z,102520.81
2023-03-03T15:52:46.560Z,102514.78
2023-03-03T15:55:27.519Z,102514.94
2023-03-03T15:58:05.800Z,102517.78
2023-03-03T16:00:49.478Z,102510.94
2023-03-03T16:03:22.996Z,102510.41
2023-03-03T16:05:55.372Z,102509.72
2023-03-03T16:08:31.035Z,102510.81
2023-03-03T16:11:08.289Z,102503.84
2023-03-03T16:14:20.043Z,102507.28
2023-03-03T16:16:55.685Z,102503.75
2023-03-03T16:19:41.193Z,102504.38
2023-03-03T16:22:37.442Z,102502.16
2023-03-03T16:25:21.857Z,102510.84
2023-03-03T16:27:57.213Z,102508.19
2023-03-03T16:30:30.721Z,102518.09
2023-03-03T16:33:20.323Z,102520.06
2023-03-03T16:35:57.443Z,102526.53
2023-03-03T16:38:33.571Z,102523.34
2023-03-03T16:41:02.684Z,102535.22
2023-03-03T16:43:43.283Z,102532.88
2023-03-03T16:46:23.354Z,102531.31
2023-03-03T16:49:01.309Z,102534.13
2023-03-03T16:51:40.680Z,102531.69
2023-03-03T16:54:12.807Z,102524.88
2023-03-03T16:56:45.734Z,102533.06
2023-03-03T16:59:35.113Z,102531.25
2023-03-03T17:02:18.741Z,102531.53
2023-03-03T17:04:57.809Z,102533.81
2023-03-03T17:07:43.518Z,102538.53
2023-03-03T17:10:26.485Z,102540.44
2023-03-03T17:13:15.789Z,102536.03
2023-03-03T17:15:54.025Z,102533.44
2023-03-03T17:18:37.743Z,102536.19
2023-03-03T17:21:15.859Z,102547.00
2023-03-03T17:23:57.120Z,102544.44
2023-03-03T17:26:36.796Z,102550.00
2023-03-03T17:29:19.182Z,102547.50
2023-03-03T17:31:55.110Z,102553.00
2023-03-03T17:34:31.977Z,102565.56
2023-03-03T17:37:15.659Z,102556.75
2023-03-03T17:40:01.765Z,102566.66
2023-03-03T17:42:38.384Z,102568.66
2023-03-03T17:45:10.474Z,102565.25
2023-03-03T17:47:51.893Z,102562.69
2023-03-03T17:50:47.883Z,102560.13
2023-03-03T17:53:34.677Z,102569.31
2023-03-03T17:56:17.706Z,102564.13
2023-03-03T17:59:09.141Z,102569.63
2023-03-03T18:01:53.312Z,102564.34
2023-03-03T18:04:36.973Z,102560.81
2023-03-03T18:07:35.181Z,102560.81
2023-03-03T18:10:27.831Z,102567.31
2023-03-03T18:13:05.716Z,102565.59
2023-03-03T18:16:10.717Z,102571.91
2023-03-03T18:19:15.250Z,102571.06
2023-03-03T18:21:52.658Z,102581.94
2023-03-03T18:24:31.979Z,102583.84
2023-03-03T18:27:28.873Z,102584.69
2023-03-03T18:30:24.873Z,102582.03
2023-03-03T18:33:09.417Z,102581.31
2023-03-03T18:35:39.581Z,102584.06
2023-03-03T18:38:37.652Z,102591.97
2023-03-03T18:41:06.865Z,102597.63
2023-03-03T18:44:23.985Z,102598.59
2023-03-03T18:46:54.664Z,102600.56
2023-03-03T18:50:00.713Z,102608.72
2023-03-03T18:52:30.893Z,102607.94
2023-03-03T18:55:27.149Z,102605.09
2023-03-03T18:58:34.017Z,102609.56
2023-03-03T19:01:14.318Z,102611.47
2023-03-03T19:04:02.151Z,102610.59
2023-03-03T19:06:32.590Z,102620.31
2023-03-03T19:09:00.872Z,102607.19
2023-03-03T19:11:37.756Z,102618.81
2023-03-03T19:14:32.576Z,102625.22
2023-03-03T19:17:39.887Z,102633.34
2023-03-03T19:20:15.504Z,102634.19
2023-03-03T19:22:48.036Z,102635.81
2023-03-03T19:25:21.887Z,102642.94
2023-03-03T19:28:04.842Z,102640.41
2023-03-03T19:30:46.255Z,102644.81
2023-03-03T19:33:41.904Z,102651.97
2023-03-03T19:36:26.869Z,102649.22
2023-03-03T19:39:09.910Z,102654.56
2023-03-03T19:41:50.028Z,102659.91
2023-03-03T19:44:35.805Z,102653.63
2023-03-03T19:47:06.084Z,102656.28
2023-03-03T19:49:54.764Z,102658.16
2023-03-03T19:52:31.419Z,102651.03
2023-03-03T19:55:15.268Z,102663.50
2023-03-03T19:57:54.235Z,102660.88
2023-03-03T20:00:32.195Z,102660.88
2023-03-03T20:03:38.313Z,102673.16
2023-03-03T20:06:21.725Z,102667.91
2023-03-03T20:08:55.035Z,102677.72
2023-03-03T20:11:46.345Z,102674.19
2023-03-03T20:14:26.160Z,102685.72
2023-03-03T20:16:58.344Z,102680.38
2023-03-03T20:19:44.071Z,102682.97
2023-03-03T20:22:24.797Z,102693.63
2023-03-03T20:25:09.443Z,102677.75
2023-03-03T20:27:46.888Z,102682.03
2023-03-03T20:30:28.803Z,102691.91
2023-03-03T20:33:12.297Z,102690.31
2023-03-03T20:35:51.555Z,102694.00
2023-03-03T20:38:28.804Z,102690.59
2023-03-03T20:41:07.044Z,102687.91
2023-03-03T20:43:48.169Z,102689.75
2023-03-03T20:46:23.562Z,102689.75
2023-03-03T20:49:12.240Z,102680.97
2023-03-03T20:51:46.261Z,102686.19
2023-03-03T20:54:25.185Z,102683.63
2023-03-03T20:56:58.250Z,102691.66
2023-03-03T20:59:32.135Z,102689.97
2023-03-03T21:02:11.589Z,102689.09
2023-03-03T21:04:39.711Z,102696.19
2023-03-03T21:07:07.959Z,102696.19
2023-03-03T21:09:39.782Z,102684.72
2023-03-03T21:12:13.086Z,102697.19
2023-03-03T21:14:41.251Z,102701.75
2023-03-03T21:17:26.902Z,102705.38
2023-03-03T21:19:55.056Z,102707.25
2023-03-03T21:22:23.884Z,102707.38
2023-03-03T21:24:56.824Z,102705.56
2023-03-03T21:27:27.224Z,102708.13
2023-03-03T21:30:12.786Z,102693.97
2023-03-03T21:32:42.974Z,102704.50
2023-03-03T21:35:13.281Z,102703.66
2023-03-03T21:37:47.651Z,102707.25
2023-03-03T21:40:20.916Z,102701.06
2023-03-03T21:42:49.331Z,102701.09
2023-03-03T21:45:20.425Z,102705.44
2023-03-03T21:47:49.050Z,102709.06
2023-03-03T21:50:20.262Z,102703.75
2023-03-03T21:52:48.267Z,102700.31
2023-03-03T21:55:17.668Z,102711.84
2023-03-03T21:57:45.732Z,102704.78
2023-03-03T22:00:14.477Z,102704.78
2023-03-03T22:02:42.380Z,102696.78
2023-03-03T22:05:10.476Z,102708.38
2023-03-03T22:07:38.418Z,102707.50
2023-03-03T22:10:07.741Z,102711.06
2023-03-03T22:12:37.194Z,102709.25
2023-03-03T22:15:05.664Z,102706.50
2023-03-03T22:17:33.717Z,102710.97
2023-03-03T22:20:01.845Z,102710.97
2023-03-03T22:22:29.916Z,102710.97
2023-03-03T22:24:57.882Z,102721.66
2023-03-03T22:27:25.966Z,102718.03
2023-03-03T22:29:55.518Z,102721.75
2023-03-03T22:32:23.498Z,102712.81
2023-03-03T22:34:51.476Z,102714.59
2023-03-03T22:37:19.465Z,102710.97
2023-03-03T22:39:47.408Z,102719.91
2023-03-03T22:42:15.353Z,102711.84
2023-03-03T22:44:45.808Z,102719.06
2023-03-03T22:47:15.360Z,102719.91
2023-03-03T22:49:43.311Z,102712.81
2023-03-03T22:52:11.186Z,102720.91
2023-03-03T22:54:39.085Z,102720.03
2023-03-03T22:57:07.148Z,102727.28
2023-03-03T22:59:35.100Z,102726.56
2023-03-03T23:02:03.050Z,102724.78
2023-03-03T23:04:33.786Z,102730.97
2023-03-03T23:07:05.990Z,102726.50
2023-03-03T23:09:34.327Z,102731.84
2023-03-03T23:12:02.309Z,102736.41
2023-03-03T23:14:30.357Z,102742.63
2023-03-03T23:16:58.247Z,102735.63
2023-03-03T23:19:26.662Z,102740.03
2023-03-03T23:21:56.028Z,102737.44
2023-03-03T23:24:23.872Z,102741.75
2023-03-03T23:26:56.822Z,102739.00
2023-03-03T23:29:25.215Z,102745.25
2023-03-03T23:31:53.183Z,102736.34
2023-03-03T23:34:21.187Z,102734.56
2023-03-03T23:36:49.543Z,102731.91
2023-03-03T23:39:18.951Z,102730.09
2023-03-03T23:41:46.958Z,102730.97
2023-03-03T23:44:15.389Z,102730.03
2023-03-03T23:46:43.487Z,102725.47
2023-03-03T23:49:11.509Z,102725.47
2023-03-03T23:51:39.441Z,102715.69
2023-03-03T23:54:07.508Z,102713.09
2023-03-03T23:56:36.884Z,102713.97
2023-03-03T23:59:04.930Z,102702.44
